sensor_id;sensor_type;location;lat;lon;timestamp;P1;durP1;ratioP1;P2;durP2;ratioP2
15327;SDS011;7764;51.430;6.840;2023-04-23T00:02:01;69.10;;;43.47;;
15327;SDS011;7764;51.430;6.840;2023-04-23T00:04:30;69.00;;;43.93;;
15327;SDS011;7764;51.430;6.840;2023-04-23T00:07:01;68.70;;;43.43;;
15327;SDS011;7764;51.430;6.840;2023-04-23T00:09:28;70.27;;;44.60;;
15327;SDS011;7764;51.430;6.840;2023-04-23T00:11:56;67.83;;;43.57;;
15327;SDS011;7764;51.430;6.840;2023-04-23T00:14:23;70.47;;;44.23;;
15327;SDS011;7764;51.430;6.840;2023-04-23T00:16:52;72.20;;;45.63;;
15327;SDS011;7764;51.430;6.840;2023-04-23T00:19:19;73.13;;;44.63;;
15327;SDS011;7764;51.430;6.840;2023-04-23T00:21:46;71.07;;;45.37;;
15327;SDS011;7764;51.430;6.840;2023-04-23T00:24:12;72.27;;;45.10;;
15327;SDS011;7764;51.430;6.840;2023-04-23T00:26:39;73.17;;;45.67;;
15327;SDS011;7764;51.430;6.840;2023-04-23T00:29:06;73.30;;;46.07;;
15327;SDS011;7764;51.430;6.840;2023-04-23T00:31:33;68.57;;;43.60;;
15327;SDS011;7764;51.430;6.840;2023-04-23T00:34:01;72.93;;;45.13;;
15327;SDS011;7764;51.430;6.840;2023-04-23T00:36:28;72.63;;;46.13;;
15327;SDS011;7764;51.430;6.840;2023-04-23T00:38:55;75.70;;;46.37;;
15327;SDS011;7764;51.430;6.840;2023-04-23T00:41:22;78.43;;;47.33;;
15327;SDS011;7764;51.430;6.840;2023-04-23T00:43:49;75.27;;;45.70;;
15327;SDS011;7764;51.430;6.840;2023-04-23T00:46:17;77.07;;;46.53;;
15327;SDS011;7764;51.430;6.840;2023-04-23T00:48:45;72.13;;;44.53;;
15327;SDS011;7764;51.430;6.840;2023-04-23T00:51:14;73.93;;;44.93;;
15327;SDS011;7764;51.430;6.840;2023-04-23T00:53:42;71.40;;;44.27;;
15327;SDS011;7764;51.430;6.840;2023-04-23T00:56:08;69.57;;;42.90;;
15327;SDS011;7764;51.430;6.840;2023-04-23T00:58:36;70.23;;;43.93;;
15327;SDS011;7764;51.430;6.840;2023-04-23T01:01:03;69.70;;;42.67;;
15327;SDS011;7764;51.430;6.840;2023-04-23T01:03:31;68.63;;;42.13;;
15327;SDS011;7764;51.430;6.840;2023-04-23T01:06:01;67.27;;;42.70;;
15327;SDS011;7764;51.430;6.840;2023-04-23T01:08:30;65.13;;;40.97;;
15327;SDS011;7764;51.430;6.840;2023-04-23T01:10:57;61.90;;;39.63;;
15327;SDS011;7764;51.430;6.840;2023-04-23T01:13:25;66.53;;;40.90;;
15327;SDS011;7764;51.430;6.840;2023-04-23T01:15:53;59.03;;;39.50;;
15327;SDS011;7764;51.430;6.840;2023-04-23T01:18:21;58.63;;;39.30;;
15327;SDS011;7764;51.430;6.840;2023-04-23T01:20:48;57.67;;;37.83;;
15327;SDS011;7764;51.430;6.840;2023-04-23T01:23:16;56.67;;;37.93;;
15327;SDS011;7764;51.430;6.840;2023-04-23T01:25:43;52.93;;;35.27;;
15327;SDS011;7764;51.430;6.840;2023-04-23T01:28:11;55.10;;;37.07;;
15327;SDS011;7764;51.430;6.840;2023-04-23T01:30:39;51.20;;;35.27;;
15327;SDS011;7764;51.430;6.840;2023-04-23T01:33:07;50.90;;;34.30;;
15327;SDS011;7764;51.430;6.840;2023-04-23T01:35:35;48.07;;;33.67;;
15327;SDS011;7764;51.430;6.840;2023-04-23T01:38:02;50.67;;;34.50;;
15327;SDS011;7764;51.430;6.840;2023-04-23T01:40:31;49.67;;;34.23;;
15327;SDS011;7764;51.430;6.840;2023-04-23T01:42:58;50.23;;;34.17;;
15327;SDS011;7764;51.430;6.840;2023-04-23T01:45:26;48.37;;;33.07;;
15327;SDS011;7764;51.430;6.840;2023-04-23T01:47:53;50.60;;;34.97;;
15327;SDS011;7764;51.430;6.840;2023-04-23T01:50:20;48.63;;;33.80;;
15327;SDS011;7764;51.430;6.840;2023-04-23T01:52:49;48.87;;;32.80;;
15327;SDS011;7764;51.430;6.840;2023-04-23T01:55:15;48.63;;;33.20;;
15327;SDS011;7764;51.430;6.840;2023-04-23T01:57:46;48.73;;;33.97;;
15327;SDS011;7764;51.430;6.840;2023-04-23T02:00:13;50.93;;;33.97;;
15327;SDS011;7764;51.430;6.840;2023-04-23T02:02:41;46.93;;;33.13;;
15327;SDS011;7764;51.430;6.840;2023-04-23T02:05:10;51.50;;;33.97;;
15327;SDS011;7764;51.430;6.840;2023-04-23T02:07:38;48.57;;;33.70;;
15327;SDS011;7764;51.430;6.840;2023-04-23T02:10:06;48.23;;;33.23;;
15327;SDS011;7764;51.430;6.840;2023-04-23T02:12:34;51.03;;;33.43;;
15327;SDS011;7764;51.430;6.840;2023-04-23T02:15:02;48.73;;;34.33;;
15327;SDS011;7764;51.430;6.840;2023-04-23T02:17:31;48.70;;;33.97;;
15327;SDS011;7764;51.430;6.840;2023-04-23T02:19:57;49.83;;;34.20;;
15327;SDS011;7764;51.430;6.840;2023-04-23T02:22:24;48.77;;;33.57;;
15327;SDS011;7764;51.430;6.840;2023-04-23T02:24:52;49.73;;;34.73;;
15327;SDS011;7764;51.430;6.840;2023-04-23T02:27:19;49.33;;;34.23;;
15327;SDS011;7764;51.430;6.840;2023-04-23T02:29:47;49.47;;;34.83;;
15327;SDS011;7764;51.430;6.840;2023-04-23T02:32:15;50.40;;;33.97;;
15327;SDS011;7764;51.430;6.840;2023-04-23T02:34:42;48.30;;;33.40;;
15327;SDS011;7764;51.430;6.840;2023-04-23T02:37:10;53.00;;;35.07;;
15327;SDS011;7764;51.430;6.840;2023-04-23T02:39:37;53.13;;;35.87;;
15327;SDS011;7764;51.430;6.840;2023-04-23T02:42:04;51.27;;;35.27;;
15327;SDS011;7764;51.430;6.840;2023-04-23T02:44:31;48.63;;;34.77;;
15327;SDS011;7764;51.430;6.840;2023-04-23T02:46:58;51.73;;;34.50;;
15327;SDS011;7764;51.430;6.840;2023-04-23T02:49:26;50.00;;;33.43;;
15327;SDS011;7764;51.430;6.840;2023-04-23T02:51:53;49.07;;;34.93;;
15327;SDS011;7764;51.430;6.840;2023-04-23T02:54:20;50.23;;;34.67;;
15327;SDS011;7764;51.430;6.840;2023-04-23T02:56:47;50.63;;;35.93;;
15327;SDS011;7764;51.430;6.840;2023-04-23T02:59:14;48.63;;;34.53;;
15327;SDS011;7764;51.430;6.840;2023-04-23T03:01:41;49.50;;;34.97;;
15327;SDS011;7764;51.430;6.840;2023-04-23T03:04:08;49.73;;;34.10;;
15327;SDS011;7764;51.430;6.840;2023-04-23T03:06:37;47.70;;;33.50;;
15327;SDS011;7764;51.430;6.840;2023-04-23T03:09:04;48.23;;;34.30;;
15327;SDS011;7764;51.430;6.840;2023-04-23T03:11:32;46.33;;;33.57;;
15327;SDS011;7764;51.430;6.840;2023-04-23T03:13:59;46.83;;;32.70;;
15327;SDS011;7764;51.430;6.840;2023-04-23T03:16:26;48.20;;;33.20;;
15327;SDS011;7764;51.430;6.840;2023-04-23T03:18:53;46.33;;;32.47;;
15327;SDS011;7764;51.430;6.840;2023-04-23T03:21:20;47.33;;;32.93;;
15327;SDS011;7764;51.430;6.840;2023-04-23T03:23:48;48.10;;;34.53;;
15327;SDS011;7764;51.430;6.840;2023-04-23T03:26:15;46.93;;;32.57;;
15327;SDS011;7764;51.430;6.840;2023-04-23T03:28:42;46.77;;;32.83;;
15327;SDS011;7764;51.430;6.840;2023-04-23T03:31:09;48.17;;;33.80;;
15327;SDS011;7764;51.430;6.840;2023-04-23T03:33:36;46.73;;;34.57;;
15327;SDS011;7764;51.430;6.840;2023-04-23T03:36:03;44.80;;;32.63;;
15327;SDS011;7764;51.430;6.840;2023-04-23T03:38:30;45.43;;;33.20;;
15327;SDS011;7764;51.430;6.840;2023-04-23T03:40:58;45.47;;;33.20;;
15327;SDS011;7764;51.430;6.840;2023-04-23T03:43:25;47.00;;;33.03;;
15327;SDS011;7764;51.430;6.840;2023-04-23T03:45:52;46.97;;;33.90;;
15327;SDS011;7764;51.430;6.840;2023-04-23T03:48:19;44.83;;;33.43;;
15327;SDS011;7764;51.430;6.840;2023-04-23T03:50:46;47.97;;;32.30;;
15327;SDS011;7764;51.430;6.840;2023-04-23T03:53:13;48.93;;;33.67;;
15327;SDS011;7764;51.430;6.840;2023-04-23T03:55:41;49.10;;;33.70;;
15327;SDS011;7764;51.430;6.840;2023-04-23T03:58:10;48.17;;;32.93;;
15327;SDS011;7764;51.430;6.840;2023-04-23T04:00:36;45.87;;;33.57;;
15327;SDS011;7764;51.430;6.840;2023-04-23T04:03:03;47.60;;;33.70;;
15327;SDS011;7764;51.430;6.840;2023-04-23T04:05:30;46.53;;;32.73;;
15327;SDS011;7764;51.430;6.840;2023-04-23T04:07:57;46.93;;;33.63;;
15327;SDS011;7764;51.430;6.840;2023-04-23T04:10:24;47.17;;;34.47;;
15327;SDS011;7764;51.430;6.840;2023-04-23T04:12:51;47.93;;;33.87;;
15327;SDS011;7764;51.430;6.840;2023-04-23T04:15:20;46.27;;;33.47;;
15327;SDS011;7764;51.430;6.840;2023-04-23T04:17:47;47.70;;;34.20;;
15327;SDS011;7764;51.430;6.840;2023-04-23T04:20:14;49.40;;;34.23;;
15327;SDS011;7764;51.430;6.840;2023-04-23T04:22:41;48.30;;;34.40;;
15327;SDS011;7764;51.430;6.840;2023-04-23T04:25:08;45.97;;;33.40;;
15327;SDS011;7764;51.430;6.840;2023-04-23T04:27:36;47.23;;;34.40;;
15327;SDS011;7764;51.430;6.840;2023-04-23T04:30:03;47.97;;;34.43;;
15327;SDS011;7764;51.430;6.840;2023-04-23T04:32:32;43.20;;;31.30;;
15327;SDS011;7764;51.430;6.840;2023-04-23T04:34:59;46.73;;;32.73;;
15327;SDS011;7764;51.430;6.840;2023-04-23T04:37:26;44.47;;;33.40;;
15327;SDS011;7764;51.430;6.840;2023-04-23T04:39:53;45.20;;;32.77;;
15327;SDS011;7764;51.430;6.840;2023-04-23T04:42:20;45.77;;;31.87;;
15327;SDS011;7764;51.430;6.840;2023-04-23T04:44:47;44.87;;;32.03;;
15327;SDS011;7764;51.430;6.840;2023-04-23T04:47:13;41.57;;;31.00;;
15327;SDS011;7764;51.430;6.840;2023-04-23T04:49:42;41.90;;;31.50;;
15327;SDS011;7764;51.430;6.840;2023-04-23T04:52:09;46.47;;;32.77;;
15327;SDS011;7764;51.430;6.840;2023-04-23T04:54:36;41.67;;;30.93;;
15327;SDS011;7764;51.430;6.840;2023-04-23T04:57:02;41.17;;;29.60;;
15327;SDS011;7764;51.430;6.840;2023-04-23T04:59:30;40.53;;;29.20;;
15327;SDS011;7764;51.430;6.840;2023-04-23T05:01:57;38.70;;;28.97;;
15327;SDS011;7764;51.430;6.840;2023-04-23T05:04:24;37.10;;;28.53;;
15327;SDS011;7764;51.430;6.840;2023-04-23T05:06:52;36.50;;;27.53;;
15327;SDS011;7764;51.430;6.840;2023-04-23T05:09:19;35.73;;;27.27;;
15327;SDS011;7764;51.430;6.840;2023-04-23T05:11:46;33.67;;;26.57;;
15327;SDS011;7764;51.430;6.840;2023-04-23T05:14:13;35.37;;;27.43;;
15327;SDS011;7764;51.430;6.840;2023-04-23T05:16:40;33.83;;;25.43;;
15327;SDS011;7764;51.430;6.840;2023-04-23T05:19:07;34.23;;;25.37;;
15327;SDS011;7764;51.430;6.840;2023-04-23T05:21:34;33.20;;;26.17;;
15327;SDS011;7764;51.430;6.840;2023-04-23T05:24:02;32.70;;;24.70;;
15327;SDS011;7764;51.430;6.840;2023-04-23T05:26:29;28.03;;;22.57;;
15327;SDS011;7764;51.430;6.840;2023-04-23T05:28:56;31.10;;;23.33;;
15327;SDS011;7764;51.430;6.840;2023-04-23T05:31:23;29.40;;;23.50;;
15327;SDS011;7764;51.430;6.840;2023-04-23T05:33:50;29.53;;;23.03;;
15327;SDS011;7764;51.430;6.840;2023-04-23T05:36:17;32.53;;;23.37;;
15327;SDS011;7764;51.430;6.840;2023-04-23T05:38:45;28.10;;;22.17;;
15327;SDS011;7764;51.430;6.840;2023-04-23T05:41:13;28.03;;;21.20;;
15327;SDS011;7764;51.430;6.840;2023-04-23T05:43:40;25.40;;;20.57;;
15327;SDS011;7764;51.430;6.840;2023-04-23T05:46:07;28.53;;;20.83;;
15327;SDS011;7764;51.430;6.840;2023-04-23T05:48:34;24.93;;;20.20;;
15327;SDS011;7764;51.430;6.840;2023-04-23T05:51:01;27.27;;;21.20;;
15327;SDS011;7764;51.430;6.840;2023-04-23T05:53:28;28.67;;;21.77;;
15327;SDS011;7764;51.430;6.840;2023-04-23T05:55:54;26.33;;;20.87;;
15327;SDS011;7764;51.430;6.840;2023-04-23T05:58:23;27.67;;;20.33;;
15327;SDS011;7764;51.430;6.840;2023-04-23T06:00:50;24.47;;;19.87;;
15327;SDS011;7764;51.430;6.840;2023-04-23T06:03:18;26.47;;;20.00;;
15327;SDS011;7764;51.430;6.840;2023-04-23T06:05:45;24.93;;;20.17;;
15327;SDS011;7764;51.430;6.840;2023-04-23T06:08:11;25.53;;;20.63;;
15327;SDS011;7764;51.430;6.840;2023-04-23T06:10:38;25.80;;;20.17;;
15327;SDS011;7764;51.430;6.840;2023-04-23T06:13:06;23.40;;;18.97;;
15327;SDS011;7764;51.430;6.840;2023-04-23T06:15:34;25.43;;;19.47;;
15327;SDS011;7764;51.430;6.840;2023-04-23T06:18:01;30.83;;;23.27;;
15327;SDS011;7764;51.430;6.840;2023-04-23T06:20:28;28.63;;;21.13;;
15327;SDS011;7764;51.430;6.840;2023-04-23T06:22:55;27.70;;;21.70;;
15327;SDS011;7764;51.430;6.840;2023-04-23T06:25:22;22.90;;;18.83;;
15327;SDS011;7764;51.430;6.840;2023-04-23T06:27:49;22.03;;;18.43;;
15327;SDS011;7764;51.430;6.840;2023-04-23T06:30:16;22.53;;;18.40;;
15327;SDS011;7764;51.430;6.840;2023-04-23T06:32:44;25.53;;;18.33;;
15327;SDS011;7764;51.430;6.840;2023-04-23T06:35:11;24.40;;;18.33;;
15327;SDS011;7764;51.430;6.840;2023-04-23T06:37:38;21.63;;;17.70;;
15327;SDS011;7764;51.430;6.840;2023-04-23T06:40:05;22.27;;;17.17;;
15327;SDS011;7764;51.430;6.840;2023-04-23T06:42:33;21.67;;;17.60;;
15327;SDS011;7764;51.430;6.840;2023-04-23T06:44:59;21.80;;;17.47;;
15327;SDS011;7764;51.430;6.840;2023-04-23T06:47:28;21.70;;;16.77;;
15327;SDS011;7764;51.430;6.840;2023-04-23T06:49:56;21.20;;;16.23;;
15327;SDS011;7764;51.430;6.840;2023-04-23T06:52:24;24.03;;;16.77;;
15327;SDS011;7764;51.430;6.840;2023-04-23T06:54:50;20.63;;;16.10;;
15327;SDS011;7764;51.430;6.840;2023-04-23T06:57:17;20.23;;;16.03;;
15327;SDS011;7764;51.430;6.840;2023-04-23T06:59:45;20.33;;;15.13;;
15327;SDS011;7764;51.430;6.840;2023-04-23T07:02:12;20.07;;;14.40;;
15327;SDS011;7764;51.430;6.840;2023-04-23T07:04:39;20.53;;;14.23;;
15327;SDS011;7764;51.430;6.840;2023-04-23T07:07:07;18.03;;;14.27;;
15327;SDS011;7764;51.430;6.840;2023-04-23T07:09:34;16.27;;;13.00;;
15327;SDS011;7764;51.430;6.840;2023-04-23T07:12:01;14.43;;;11.87;;
15327;SDS011;7764;51.430;6.840;2023-04-23T07:14:28;15.90;;;12.73;;
15327;SDS011;7764;51.430;6.840;2023-04-23T07:16:54;14.52;;;12.55;;
15327;SDS011;7764;51.430;6.840;2023-04-23T07:19:21;15.20;;;10.48;;
15327;SDS011;7764;51.430;6.840;2023-04-23T07:21:48;17.52;;;10.73;;
15327;SDS011;7764;51.430;6.840;2023-04-23T07:24:18;10.40;;;8.73;;
15327;SDS011;7764;51.430;6.840;2023-04-23T07:26:45;11.57;;;8.60;;
15327;SDS011;7764;51.430;6.840;2023-04-23T07:29:12;13.32;;;9.30;;
15327;SDS011;7764;51.430;6.840;2023-04-23T07:31:39;11.88;;;9.40;;
15327;SDS011;7764;51.430;6.840;2023-04-23T07:34:06;12.00;;;8.95;;
15327;SDS011;7764;51.430;6.840;2023-04-23T07:36:33;11.50;;;8.50;;
15327;SDS011;7764;51.430;6.840;2023-04-23T07:39:00;10.40;;;7.90;;
15327;SDS011;7764;51.430;6.840;2023-04-23T07:41:30;9.82;;;7.97;;
15327;SDS011;7764;51.430;6.840;2023-04-23T07:43:59;9.55;;;7.70;;
15327;SDS011;7764;51.430;6.840;2023-04-23T07:46:26;10.13;;;7.40;;
15327;SDS011;7764;51.430;6.840;2023-04-23T07:48:53;10.77;;;7.70;;
15327;SDS011;7764;51.430;6.840;2023-04-23T07:51:20;10.18;;;7.10;;
15327;SDS011;7764;51.430;6.840;2023-04-23T07:53:50;13.25;;;10.05;;
15327;SDS011;7764;51.430;6.840;2023-04-23T07:56:18;9.77;;;6.88;;
15327;SDS011;7764;51.430;6.840;2023-04-23T07:58:46;8.60;;;6.68;;
15327;SDS011;7764;51.430;6.840;2023-04-23T08:01:13;9.50;;;7.20;;
15327;SDS011;7764;51.430;6.840;2023-04-23T08:03:40;9.43;;;6.85;;
15327;SDS011;7764;51.430;6.840;2023-04-23T08:06:07;10.40;;;7.47;;
15327;SDS011;7764;51.430;6.840;2023-04-23T08:08:36;8.88;;;6.90;;
15327;SDS011;7764;51.430;6.840;2023-04-23T08:11:03;9.40;;;6.70;;
15327;SDS011;7764;51.430;6.840;2023-04-23T08:13:30;9.48;;;6.95;;
15327;SDS011;7764;51.430;6.840;2023-04-23T08:15:58;9.32;;;7.45;;
15327;SDS011;7764;51.430;6.840;2023-04-23T08:18:25;11.32;;;6.75;;
15327;SDS011;7764;51.430;6.840;2023-04-23T08:20:52;8.38;;;6.30;;
15327;SDS011;7764;51.430;6.840;2023-04-23T08:23:20;9.80;;;6.75;;
15327;SDS011;7764;51.430;6.840;2023-04-23T08:25:47;8.85;;;6.32;;
15327;SDS011;7764;51.430;6.840;2023-04-23T08:28:14;11.05;;;6.22;;
15327;SDS011;7764;51.430;6.840;2023-04-23T08:30:41;8.48;;;6.18;;
15327;SDS011;7764;51.430;6.840;2023-04-23T08:33:09;8.60;;;6.00;;
15327;SDS011;7764;51.430;6.840;2023-04-23T08:35:36;8.85;;;6.30;;
15327;SDS011;7764;51.430;6.840;2023-04-23T08:38:03;9.52;;;5.60;;
15327;SDS011;7764;51.430;6.840;2023-04-23T08:40:30;9.88;;;5.45;;
15327;SDS011;7764;51.430;6.840;2023-04-23T08:43:00;11.32;;;5.60;;
15327;SDS011;7764;51.430;6.840;2023-04-23T08:45:29;9.88;;;5.80;;
15327;SDS011;7764;51.430;6.840;2023-04-23T08:47:57;8.30;;;5.40;;
15327;SDS011;7764;51.430;6.840;2023-04-23T08:50:26;8.30;;;5.10;;
15327;SDS011;7764;51.430;6.840;2023-04-23T08:52:55;7.38;;;4.60;;
15327;SDS011;7764;51.430;6.840;2023-04-23T08:55:23;8.48;;;5.25;;
15327;SDS011;7764;51.430;6.840;2023-04-23T08:57:50;7.57;;;4.68;;
15327;SDS011;7764;51.430;6.840;2023-04-23T09:00:18;7.88;;;4.15;;
15327;SDS011;7764;51.430;6.840;2023-04-23T09:02:47;7.93;;;4.15;;
15327;SDS011;7764;51.430;6.840;2023-04-23T09:05:14;9.63;;;4.35;;
15327;SDS011;7764;51.430;6.840;2023-04-23T09:07:42;7.82;;;4.50;;
15327;SDS011;7764;51.430;6.840;2023-04-23T09:10:10;6.68;;;4.13;;
15327;SDS011;7764;51.430;6.840;2023-04-23T09:12:39;8.85;;;4.35;;
15327;SDS011;7764;51.430;6.840;2023-04-23T09:15:08;9.40;;;4.93;;
15327;SDS011;7764;51.430;6.840;2023-04-23T09:17:37;8.43;;;4.35;;
15327;SDS011;7764;51.430;6.840;2023-04-23T09:20:06;8.02;;;4.47;;
15327;SDS011;7764;51.430;6.840;2023-04-23T09:22:37;9.10;;;4.78;;
15327;SDS011;7764;51.430;6.840;2023-04-23T09:25:06;6.47;;;4.40;;
15327;SDS011;7764;51.430;6.840;2023-04-23T09:27:34;10.50;;;5.25;;
15327;SDS011;7764;51.430;6.840;2023-04-23T09:30:02;8.23;;;4.30;;
15327;SDS011;7764;51.430;6.840;2023-04-23T09:32:31;8.38;;;4.95;;
15327;SDS011;7764;51.430;6.840;2023-04-23T09:34:58;8.27;;;4.97;;
15327;SDS011;7764;51.430;6.840;2023-04-23T09:37:28;9.73;;;4.20;;
15327;SDS011;7764;51.430;6.840;2023-04-23T09:39:57;8.07;;;4.00;;
15327;SDS011;7764;51.430;6.840;2023-04-23T09:42:27;7.57;;;3.85;;
15327;SDS011;7764;51.430;6.840;2023-04-23T09:44:56;7.93;;;4.03;;
15327;SDS011;7764;51.430;6.840;2023-04-23T09:47:25;5.50;;;3.30;;
15327;SDS011;7764;51.430;6.840;2023-04-23T09:49:53;9.27;;;3.63;;
15327;SDS011;7764;51.430;6.840;2023-04-23T09:52:20;8.38;;;3.53;;
15327;SDS011;7764;51.430;6.840;2023-04-23T09:54:47;7.07;;;4.63;;
15327;SDS011;7764;51.430;6.840;2023-04-23T09:57:14;7.63;;;3.40;;
15327;SDS011;7764;51.430;6.840;2023-04-23T09:59:42;5.75;;;2.97;;
15327;SDS011;7764;51.430;6.840;2023-04-23T10:02:09;8.20;;;3.65;;
15327;SDS011;7764;51.430;6.840;2023-04-23T10:04:37;8.43;;;5.03;;
15327;SDS011;7764;51.430;6.840;2023-04-23T10:07:05;7.70;;;4.65;;
15327;SDS011;7764;51.430;6.840;2023-04-23T10:09:37;6.70;;;4.00;;
15327;SDS011;7764;51.430;6.840;2023-04-23T10:12:05;6.70;;;3.78;;
15327;SDS011;7764;51.430;6.840;2023-04-23T10:14:33;7.05;;;3.88;;
15327;SDS011;7764;51.430;6.840;2023-04-23T10:17:03;7.88;;;4.55;;
15327;SDS011;7764;51.430;6.840;2023-04-23T10:19:30;6.28;;;3.90;;
15327;SDS011;7764;51.430;6.840;2023-04-23T10:21:58;7.72;;;4.60;;
15327;SDS011;7764;51.430;6.840;2023-04-23T10:24:30;7.63;;;4.35;;
15327;SDS011;7764;51.430;6.840;2023-04-23T10:26:58;6.75;;;3.70;;
15327;SDS011;7764;51.430;6.840;2023-04-23T10:29:27;5.82;;;3.47;;
15327;SDS011;7764;51.430;6.840;2023-04-23T10:31:56;10.13;;;5.00;;
15327;SDS011;7764;51.430;6.840;2023-04-23T10:34:25;7.28;;;3.80;;
15327;SDS011;7764;51.430;6.840;2023-04-23T10:36:53;10.00;;;4.57;;
15327;SDS011;7764;51.430;6.840;2023-04-23T10:39:22;7.70;;;4.47;;
15327;SDS011;7764;51.430;6.840;2023-04-23T10:41:51;6.40;;;4.45;;
15327;SDS011;7764;51.430;6.840;2023-04-23T10:44:19;5.90;;;4.28;;
15327;SDS011;7764;51.430;6.840;2023-04-23T10:46:50;7.68;;;3.72;;
15327;SDS011;7764;51.430;6.840;2023-04-23T10:49:18;6.65;;;4.05;;
15327;SDS011;7764;51.430;6.840;2023-04-23T10:51:48;6.97;;;3.97;;
15327;SDS011;7764;51.430;6.840;2023-04-23T10:54:25;6.20;;;3.63;;
15327;SDS011;7764;51.430;6.840;2023-04-23T10:56:56;5.85;;;3.72;;
15327;SDS011;7764;51.430;6.840;2023-04-23T10:59:25;7.00;;;3.30;;
15327;SDS011;7764;51.430;6.840;2023-04-23T11:01:55;6.78;;;3.05;;
15327;SDS011;7764;51.430;6.840;2023-04-23T11:04:24;5.93;;;3.30;;
15327;SDS011;7764;51.430;6.840;2023-04-23T11:06:54;5.60;;;3.22;;
15327;SDS011;7764;51.430;6.840;2023-04-23T11:09:29;6.20;;;3.30;;
15327;SDS011;7764;51.430;6.840;2023-04-23T11:11:58;6.72;;;3.50;;
15327;SDS011;7764;51.430;6.840;2023-04-23T11:17:58;6.82;;;3.65;;
15327;SDS011;7764;51.430;6.840;2023-04-23T11:20:27;5.43;;;2.90;;
15327;SDS011;7764;51.430;6.840;2023-04-23T11:22:55;5.82;;;3.10;;
15327;SDS011;7764;51.430;6.840;2023-04-23T11:25:22;5.43;;;2.70;;
15327;SDS011;7764;51.430;6.840;2023-04-23T11:27:51;5.10;;;3.28;;
15327;SDS011;7764;51.430;6.840;2023-04-23T11:30:20;6.75;;;5.00;;
15327;SDS011;7764;51.430;6.840;2023-04-23T11:32:48;5.18;;;2.65;;
15327;SDS011;7764;51.430;6.840;2023-04-23T11:35:17;6.20;;;2.50;;
15327;SDS011;7764;51.430;6.840;2023-04-23T11:37:45;5.38;;;2.50;;
15327;SDS011;7764;51.430;6.840;2023-04-23T11:40:15;4.72;;;2.20;;
15327;SDS011;7764;51.430;6.840;2023-04-23T11:42:44;5.70;;;2.80;;
15327;SDS011;7764;51.430;6.840;2023-04-23T11:45:13;4.60;;;2.50;;
15327;SDS011;7764;51.430;6.840;2023-04-23T11:47:45;5.95;;;2.80;;
15327;SDS011;7764;51.430;6.840;2023-04-23T11:50:18;4.85;;;2.45;;
15327;SDS011;7764;51.430;6.840;2023-04-23T11:52:46;3.58;;;2.05;;
15327;SDS011;7764;51.430;6.840;2023-04-23T11:55:14;8.13;;;3.38;;
15327;SDS011;7764;51.430;6.840;2023-04-23T11:57:42;5.88;;;3.50;;
15327;SDS011;7764;51.430;6.840;2023-04-23T12:00:11;5.22;;;2.50;;
15327;SDS011;7764;51.430;6.840;2023-04-23T12:02:48;5.35;;;2.05;;
15327;SDS011;7764;51.430;6.840;2023-04-23T12:05:18;6.20;;;2.17;;
15327;SDS011;7764;51.430;6.840;2023-04-23T12:07:47;5.90;;;2.72;;
15327;SDS011;7764;51.430;6.840;2023-04-23T12:10:17;4.72;;;2.17;;
15327;SDS011;7764;51.430;6.840;2023-04-23T12:12:48;5.72;;;2.65;;
15327;SDS011;7764;51.430;6.840;2023-04-23T12:15:17;5.38;;;3.05;;
15327;SDS011;7764;51.430;6.840;2023-04-23T12:17:47;5.32;;;2.08;;
15327;SDS011;7764;51.430;6.840;2023-04-23T12:20:16;3.47;;;1.90;;
15327;SDS011;7764;51.430;6.840;2023-04-23T12:22:45;5.30;;;2.30;;
15327;SDS011;7764;51.430;6.840;2023-04-23T12:25:12;5.32;;;2.00;;
15327;SDS011;7764;51.430;6.840;2023-04-23T12:27:42;6.78;;;2.50;;
15327;SDS011;7764;51.430;6.840;2023-04-23T12:30:10;4.82;;;1.85;;
15327;SDS011;7764;51.430;6.840;2023-04-23T12:32:38;3.47;;;1.83;;
15327;SDS011;7764;51.430;6.840;2023-04-23T12:35:06;3.15;;;1.50;;
15327;SDS011;7764;51.430;6.840;2023-04-23T12:37:35;4.28;;;1.85;;
15327;SDS011;7764;51.430;6.840;2023-04-23T12:40:03;4.53;;;2.10;;
15327;SDS011;7764;51.430;6.840;2023-04-23T12:42:32;3.35;;;1.75;;
15327;SDS011;7764;51.430;6.840;2023-04-23T12:45:08;5.03;;;2.17;;
15327;SDS011;7764;51.430;6.840;2023-04-23T12:47:36;7.63;;;2.38;;
15327;SDS011;7764;51.430;6.840;2023-04-23T12:50:03;5.45;;;2.33;;
15327;SDS011;7764;51.430;6.840;2023-04-23T12:52:30;4.70;;;2.17;;
15327;SDS011;7764;51.430;6.840;2023-04-23T12:54:57;5.35;;;2.20;;
15327;SDS011;7764;51.430;6.840;2023-04-23T12:57:25;3.95;;;1.73;;
15327;SDS011;7764;51.430;6.840;2023-04-23T12:59:52;4.18;;;1.98;;
15327;SDS011;7764;51.430;6.840;2023-04-23T13:02:22;5.70;;;2.38;;
15327;SDS011;7764;51.430;6.840;2023-04-23T13:04:50;7.13;;;2.53;;
15327;SDS011;7764;51.430;6.840;2023-04-23T13:07:18;6.10;;;2.20;;
15327;SDS011;7764;51.430;6.840;2023-04-23T13:09:45;4.18;;;1.83;;
15327;SDS011;7764;51.430;6.840;2023-04-23T13:12:12;4.25;;;1.85;;
15327;SDS011;7764;51.430;6.840;2023-04-23T13:14:39;4.72;;;2.33;;
15327;SDS011;7764;51.430;6.840;2023-04-23T13:17:06;3.45;;;1.80;;
15327;SDS011;7764;51.430;6.840;2023-04-23T13:19:34;4.35;;;2.20;;
15327;SDS011;7764;51.430;6.840;2023-04-23T13:22:03;4.32;;;1.92;;
15327;SDS011;7764;51.430;6.840;2023-04-23T13:24:30;3.97;;;1.85;;
15327;SDS011;7764;51.430;6.840;2023-04-23T13:26:57;4.40;;;2.05;;
15327;SDS011;7764;51.430;6.840;2023-04-23T13:29:25;5.47;;;3.00;;
15327;SDS011;7764;51.430;6.840;2023-04-23T13:31:52;5.47;;;2.13;;
15327;SDS011;7764;51.430;6.840;2023-04-23T13:34:19;4.15;;;2.00;;
15327;SDS011;7764;51.430;6.840;2023-04-23T13:36:48;4.13;;;1.80;;
15327;SDS011;7764;51.430;6.840;2023-04-23T13:39:15;3.22;;;1.58;;
15327;SDS011;7764;51.430;6.840;2023-04-23T13:41:42;4.00;;;1.80;;
15327;SDS011;7764;51.430;6.840;2023-04-23T13:44:09;4.30;;;1.48;;
15327;SDS011;7764;51.430;6.840;2023-04-23T13:46:37;3.97;;;2.30;;
15327;SDS011;7764;51.430;6.840;2023-04-23T13:49:05;3.28;;;1.50;;
15327;SDS011;7764;51.430;6.840;2023-04-23T13:51:32;4.20;;;1.50;;
15327;SDS011;7764;51.430;6.840;2023-04-23T13:54:00;12.13;;;5.15;;
15327;SDS011;7764;51.430;6.840;2023-04-23T13:56:28;4.88;;;1.85;;
15327;SDS011;7764;51.430;6.840;2023-04-23T13:58:55;3.97;;;2.00;;
15327;SDS011;7764;51.430;6.840;2023-04-23T14:01:26;3.67;;;1.70;;
15327;SDS011;7764;51.430;6.840;2023-04-23T14:06:21;4.65;;;1.80;;
15327;SDS011;7764;51.430;6.840;2023-04-23T14:08:48;4.72;;;1.63;;
15327;SDS011;7764;51.430;6.840;2023-04-23T14:11:16;5.97;;;1.55;;
15327;SDS011;7764;51.430;6.840;2023-04-23T14:13:44;4.80;;;1.80;;
15327;SDS011;7764;51.430;6.840;2023-04-23T14:16:11;3.78;;;1.75;;
15327;SDS011;7764;51.430;6.840;2023-04-23T14:18:38;4.22;;;1.80;;
15327;SDS011;7764;51.430;6.840;2023-04-23T14:21:05;2.97;;;1.70;;
15327;SDS011;7764;51.430;6.840;2023-04-23T14:23:43;4.68;;;2.28;;
15327;SDS011;7764;51.430;6.840;2023-04-23T14:26:21;4.13;;;1.85;;
15327;SDS011;7764;51.430;6.840;2023-04-23T14:28:53;5.28;;;2.65;;
15327;SDS011;7764;51.430;6.840;2023-04-23T14:31:23;3.53;;;1.65;;
15327;SDS011;7764;51.430;6.840;2023-04-23T14:33:49;5.88;;;3.15;;
15327;SDS011;7764;51.430;6.840;2023-04-23T14:36:17;2.78;;;1.67;;
15327;SDS011;7764;51.430;6.840;2023-04-23T14:38:44;4.07;;;1.70;;
15327;SDS011;7764;51.430;6.840;2023-04-23T14:41:10;3.33;;;1.80;;
15327;SDS011;7764;51.430;6.840;2023-04-23T14:43:39;5.45;;;1.90;;
15327;SDS011;7764;51.430;6.840;2023-04-23T14:46:05;4.78;;;1.80;;
15327;SDS011;7764;51.430;6.840;2023-04-23T14:48:32;5.25;;;2.08;;
15327;SDS011;7764;51.430;6.840;2023-04-23T14:50:59;3.65;;;1.80;;
15327;SDS011;7764;51.430;6.840;2023-04-23T14:53:26;3.83;;;2.33;;
15327;SDS011;7764;51.430;6.840;2023-04-23T14:55:53;4.85;;;1.73;;
15327;SDS011;7764;51.430;6.840;2023-04-23T14:58:20;4.43;;;2.10;;